sensor_id;sensor_type;location;lat;lon;timestamp;temperature;humidity
67722;SHT31;58309;45.292;11.820;2023-02-28T00:00:51;4.01;66.08
67722;SHT31;58309;45.292;11.820;2023-02-28T00:03:16;4.01;66.25
67722;SHT31;58309;45.292;11.820;2023-02-28T00:05:42;4.00;65.83
67722;SHT31;58309;45.292;11.820;2023-02-28T00:08:08;3.98;65.99
67722;SHT31;58309;45.292;11.820;2023-02-28T00:10:34;3.98;65.50
67722;SHT31;58309;45.292;11.820;2023-02-28T00:13:05;4.00;65.96
67722;SHT31;58309;45.292;11.820;2023-02-28T00:15:32;3.97;66.17
67722;SHT31;58309;45.292;11.820;2023-02-28T00:17:57;3.93;66.45
67722;SHT31;58309;45.292;11.820;2023-02-28T00:20:23;3.91;66.41
67722;SHT31;58309;45.292;11.820;2023-02-28T00:22:51;3.87;66.75
67722;SHT31;58309;45.292;11.820;2023-02-28T00:25:20;3.89;66.93
67722;SHT31;58309;45.292;11.820;2023-02-28T00:27:46;3.87;66.83
67722;SHT31;58309;45.292;11.820;2023-02-28T00:30:15;3.87;67.28
67722;SHT31;58309;45.292;11.820;2023-02-28T00:32:41;3.85;67.19
67722;SHT31;58309;45.292;11.820;2023-02-28T00:35:07;3.86;66.95
67722;SHT31;58309;45.292;11.820;2023-02-28T00:37:33;3.83;67.43
67722;SHT31;58309;45.292;11.820;2023-02-28T00:39:59;3.89;66.88
67722;SHT31;58309;45.292;11.820;2023-02-28T00:42:25;3.87;67.15
67722;SHT31;58309;45.292;11.820;2023-02-28T00:44:50;3.86;67.28
67722;SHT31;58309;45.292;11.820;2023-02-28T00:47:16;3.90;67.13
67722;SHT31;58309;45.292;11.820;2023-02-28T00:49:42;3.86;67.53
67722;SHT31;58309;45.292;11.820;2023-02-28T00:52:07;3.87;67.07
67722;SHT31;58309;45.292;11.820;2023-02-28T00:54:33;3.90;67.03
67722;SHT31;58309;45.292;11.820;2023-02-28T00:56:59;3.85;67.55
67722;SHT31;58309;45.292;11.820;2023-02-28T00:59:25;3.87;67.54
67722;SHT31;58309;45.292;11.820;2023-02-28T01:01:50;3.87;67.45
67722;SHT31;58309;45.292;11.820;2023-02-28T01:04:16;3.90;67.46
67722;SHT31;58309;45.292;11.820;2023-02-28T01:06:41;3.87;67.52
67722;SHT31;58309;45.292;11.820;2023-02-28T01:09:07;3.89;67.28
67722;SHT31;58309;45.292;11.820;2023-02-28T01:11:33;3.83;67.59
67722;SHT31;58309;45.292;11.820;2023-02-28T01:13:59;3.82;67.94
67722;SHT31;58309;45.292;11.820;2023-02-28T01:16:25;3.77;67.97
67722;SHT31;58309;45.292;11.820;2023-02-28T01:18:50;3.75;67.87
67722;SHT31;58309;45.292;11.820;2023-02-28T01:21:18;3.77;67.85
67722;SHT31;58309;45.292;11.820;2023-02-28T01:23:44;3.79;67.48
67722;SHT31;58309;45.292;11.820;2023-02-28T01:26:13;3.77;67.73
67722;SHT31;58309;45.292;11.820;2023-02-28T01:28:39;3.75;67.82
67722;SHT31;58309;45.292;11.820;2023-02-28T01:31:05;3.75;68.19
67722;SHT31;58309;45.292;11.820;2023-02-28T01:33:32;3.75;68.31
67722;SHT31;58309;45.292;11.820;2023-02-28T01:36:27;3.72;68.36
67722;SHT31;58309;45.292;11.820;2023-02-28T01:38:53;3.73;68.06
67722;SHT31;58309;45.292;11.820;2023-02-28T01:46:12;3.67;68.47
67722;SHT31;58309;45.292;11.820;2023-02-28T01:48:40;3.69;68.60
67722;SHT31;58309;45.292;11.820;2023-02-28T01:51:18;3.65;69.06
67722;SHT31;58309;45.292;11.820;2023-02-28T01:53:48;3.60;69.58
67722;SHT31;58309;45.292;11.820;2023-02-28T01:56:18;3.53;69.43
67722;SHT31;58309;45.292;11.820;2023-02-28T01:58:48;3.56;69.28
67722;SHT31;58309;45.292;11.820;2023-02-28T02:01:14;3.55;69.41
67722;SHT31;58309;45.292;11.820;2023-02-28T02:03:48;3.58;68.85
67722;SHT31;58309;45.292;11.820;2023-02-28T02:06:23;3.56;68.84
67722;SHT31;58309;45.292;11.820;2023-02-28T02:08:49;3.55;68.69
67722;SHT31;58309;45.292;11.820;2023-02-28T02:11:18;3.59;68.46
67722;SHT31;58309;45.292;11.820;2023-02-28T02:18:50;3.46;69.05
67722;SHT31;58309;45.292;11.820;2023-02-28T02:40:31;3.58;69.64
67722;SHT31;58309;45.292;11.820;2023-02-28T02:47:56;3.55;70.23
67722;SHT31;58309;45.292;11.820;2023-02-28T02:50:33;3.53;70.15
67722;SHT31;58309;45.292;11.820;2023-02-28T02:53:01;3.59;69.62
67722;SHT31;58309;45.292;11.820;2023-02-28T02:55:30;3.59;69.56
67722;SHT31;58309;45.292;11.820;2023-02-28T02:58:01;3.60;69.39
67722;SHT31;58309;45.292;11.820;2023-02-28T03:00:48;3.60;69.28
67722;SHT31;58309;45.292;11.820;2023-02-28T03:03:17;3.62;68.62
67722;SHT31;58309;45.292;11.820;2023-02-28T03:05:48;3.65;68.60
67722;SHT31;58309;45.292;11.820;2023-02-28T03:08:15;3.66;68.40
67722;SHT31;58309;45.292;11.820;2023-02-28T03:10:42;3.66;68.43
67722;SHT31;58309;45.292;11.820;2023-02-28T03:24:27;3.60;68.75
67722;SHT31;58309;45.292;11.820;2023-02-28T03:27:02;3.59;68.55
67722;SHT31;58309;45.292;11.820;2023-02-28T03:29:34;3.63;68.58
67722;SHT31;58309;45.292;11.820;2023-02-28T03:32:04;3.63;68.26
67722;SHT31;58309;45.292;11.820;2023-02-28T03:34:38;3.60;68.72
67722;SHT31;58309;45.292;11.820;2023-02-28T03:37:11;3.62;68.59
67722;SHT31;58309;45.292;11.820;2023-02-28T03:39:45;3.58;68.54
67722;SHT31;58309;45.292;11.820;2023-02-28T03:42:18;3.58;68.46
67722;SHT31;58309;45.292;11.820;2023-02-28T03:44:48;3.56;69.06
67722;SHT31;58309;45.292;11.820;2023-02-28T03:47:27;3.53;68.76
67722;SHT31;58309;45.292;11.820;2023-02-28T03:50:05;3.52;68.75
67722;SHT31;58309;45.292;11.820;2023-02-28T03:52:35;3.45;69.16
67722;SHT31;58309;45.292;11.820;2023-02-28T03:55:07;3.46;68.79
67722;SHT31;58309;45.292;11.820;2023-02-28T03:57:58;3.39;69.40
67722;SHT31;58309;45.292;11.820;2023-02-28T04:00:36;3.35;69.44
67722;SHT31;58309;45.292;11.820;2023-02-28T04:03:03;3.24;70.53
67722;SHT31;58309;45.292;11.820;2023-02-28T04:05:29;3.18;70.09
67722;SHT31;58309;45.292;11.820;2023-02-28T04:08:06;3.04;71.53
67722;SHT31;58309;45.292;11.820;2023-02-28T04:10:32;3.00;71.07
67722;SHT31;58309;45.292;11.820;2023-02-28T04:12:58;2.84;71.60
67722;SHT31;58309;45.292;11.820;2023-02-28T04:15:23;2.70;72.62
67722;SHT31;58309;45.292;11.820;2023-02-28T04:17:50;2.50;73.66
67722;SHT31;58309;45.292;11.820;2023-02-28T04:20:16;2.33;74.60
67722;SHT31;58309;45.292;11.820;2023-02-28T04:22:41;2.16;75.51
67722;SHT31;58309;45.292;11.820;2023-02-28T04:25:07;2.02;75.87
67722;SHT31;58309;45.292;11.820;2023-02-28T04:27:33;1.84;76.66
67722;SHT31;58309;45.292;11.820;2023-02-28T04:29:59;1.77;77.16
67722;SHT31;58309;45.292;11.820;2023-02-28T04:32:24;1.58;77.77
67722;SHT31;58309;45.292;11.820;2023-02-28T04:34:50;1.50;78.21
67722;SHT31;58309;45.292;11.820;2023-02-28T04:37:15;1.42;78.53
67722;SHT31;58309;45.292;11.820;2023-02-28T04:39:42;1.34;78.77
67722;SHT31;58309;45.292;11.820;2023-02-28T04:42:07;1.34;78.74
67722;SHT31;58309;45.292;11.820;2023-02-28T04:44:33;1.32;79.25
67722;SHT31;58309;45.292;11.820;2023-02-28T04:46:59;1.37;78.36
67722;SHT31;58309;45.292;11.820;2023-02-28T04:49:24;1.17;79.34
67722;SHT31;58309;45.292;11.820;2023-02-28T04:51:50;1.04;79.82
67722;SHT31;58309;45.292;11.820;2023-02-28T04:54:15;1.00;79.96
67722;SHT31;58309;45.292;11.820;2023-02-28T04:56:43;0.99;80.03
67722;SHT31;58309;45.292;11.820;2023-02-28T04:59:08;0.83;80.32
67722;SHT31;58309;45.292;11.820;2023-02-28T05:01:34;0.82;80.48
67722;SHT31;58309;45.292;11.820;2023-02-28T05:04:03;0.82;80.47
67722;SHT31;58309;45.292;11.820;2023-02-28T05:06:31;0.85;80.39
67722;SHT31;58309;45.292;11.820;2023-02-28T05:08:57;0.89;80.19
67722;SHT31;58309;45.292;11.820;2023-02-28T05:13:50;0.81;80.69
67722;SHT31;58309;45.292;11.820;2023-02-28T05:16:16;0.78;80.83
67722;SHT31;58309;45.292;11.820;2023-02-28T05:18:41;0.65;81.29
67722;SHT31;58309;45.292;11.820;2023-02-28T05:21:23;0.61;81.44
67722;SHT31;58309;45.292;11.820;2023-02-28T05:23:49;0.62;81.68
67722;SHT31;58309;45.292;11.820;2023-02-28T05:26:15;0.72;80.73
67722;SHT31;58309;45.292;11.820;2023-02-28T05:28:40;0.79;80.51
67722;SHT31;58309;45.292;11.820;2023-02-28T05:31:07;0.91;79.75
67722;SHT31;58309;45.292;11.820;2023-02-28T05:33:33;0.95;79.66
67722;SHT31;58309;45.292;11.820;2023-02-28T05:35:58;1.00;79.43
67722;SHT31;58309;45.292;11.820;2023-02-28T05:38:23;1.12;78.93
67722;SHT31;58309;45.292;11.820;2023-02-28T05:40:49;1.17;78.88
67722;SHT31;58309;45.292;11.820;2023-02-28T05:43:14;1.07;79.24
67722;SHT31;58309;45.292;11.820;2023-02-28T05:45:40;0.93;79.86
67722;SHT31;58309;45.292;11.820;2023-02-28T05:48:05;0.89;79.72
67722;SHT31;58309;45.292;11.820;2023-02-28T05:50:31;0.86;79.91
67722;SHT31;58309;45.292;11.820;2023-02-28T05:52:56;0.72;81.30
67722;SHT31;58309;45.292;11.820;2023-02-28T05:55:25;0.64;81.68
67722;SHT31;58309;45.292;11.820;2023-02-28T05:57:50;0.62;81.37
67722;SHT31;58309;45.292;11.820;2023-02-28T06:00:16;0.64;81.21
67722;SHT31;58309;45.292;11.820;2023-02-28T06:02:43;0.62;81.28
67722;SHT31;58309;45.292;11.820;2023-02-28T06:05:14;0.54;81.91
67722;SHT31;58309;45.292;11.820;2023-02-28T06:07:40;0.66;81.04
67722;SHT31;58309;45.292;11.820;2023-02-28T06:10:06;0.68;81.11
67722;SHT31;58309;45.292;11.820;2023-02-28T06:12:31;0.65;81.18
67722;SHT31;58309;45.292;11.820;2023-02-28T06:14:57;0.71;81.06
67722;SHT31;58309;45.292;11.820;2023-02-28T06:17:22;0.69;81.42
67722;SHT31;58309;45.292;11.820;2023-02-28T06:19:48;0.69;81.53
67722;SHT31;58309;45.292;11.820;2023-02-28T06:22:13;0.72;81.86
67722;SHT31;58309;45.292;11.820;2023-02-28T06:24:39;0.92;80.82
67722;SHT31;58309;45.292;11.820;2023-02-28T06:27:04;1.15;80.25
67722;SHT31;58309;45.292;11.820;2023-02-28T06:29:32;1.30;79.65
67722;SHT31;58309;45.292;11.820;2023-02-28T06:31:58;1.46;79.48
67722;SHT31;58309;45.292;11.820;2023-02-28T06:34:23;1.57;78.66
67722;SHT31;58309;45.292;11.820;2023-02-28T06:36:50;1.54;79.62
67722;SHT31;58309;45.292;11.820;2023-02-28T06:39:16;1.51;80.00
67722;SHT31;58309;45.292;11.820;2023-02-28T06:41:42;1.60;79.78
67722;SHT31;58309;45.292;11.820;2023-02-28T06:44:15;1.78;78.89
67722;SHT31;58309;45.292;11.820;2023-02-28T06:46:42;1.92;78.14
67722;SHT31;58309;45.292;11.820;2023-02-28T06:49:09;1.99;78.00
67722;SHT31;58309;45.292;11.820;2023-02-28T06:51:36;2.12;77.32
67722;SHT31;58309;45.292;11.820;2023-02-28T06:54:03;2.18;77.32
67722;SHT31;58309;45.292;11.820;2023-02-28T06:56:28;2.30;76.25
67722;SHT31;58309;45.292;11.820;2023-02-28T06:58:54;2.32;76.52
67722;SHT31;58309;45.292;11.820;2023-02-28T07:01:20;2.43;76.14
67722;SHT31;58309;45.292;11.820;2023-02-28T07:03:46;2.50;75.81
67722;SHT31;58309;45.292;11.820;2023-02-28T07:06:12;2.56;75.78
67722;SHT31;58309;45.292;11.820;2023-02-28T07:08:37;2.64;76.30
67722;SHT31;58309;45.292;11.820;2023-02-28T07:11:03;2.79;75.62
67722;SHT31;58309;45.292;11.820;2023-02-28T07:13:29;2.80;75.66
67722;SHT31;58309;45.292;11.820;2023-02-28T07:15:56;2.88;75.33
67722;SHT31;58309;45.292;11.820;2023-02-28T07:18:22;2.87;75.61
67722;SHT31;58309;45.292;11.820;2023-02-28T07:20:47;3.03;75.03
67722;SHT31;58309;45.292;11.820;2023-02-28T07:23:13;3.28;74.01
67722;SHT31;58309;45.292;11.820;2023-02-28T07:25:38;3.38;74.22
67722;SHT31;58309;45.292;11.820;2023-02-28T07:28:04;3.48;74.63
67722;SHT31;58309;45.292;11.820;2023-02-28T07:30:30;3.59;72.74
67722;SHT31;58309;45.292;11.820;2023-02-28T07:32:55;3.85;70.67
67722;SHT31;58309;45.292;11.820;2023-02-28T07:35:21;4.01;70.08
67722;SHT31;58309;45.292;11.820;2023-02-28T07:37:47;4.21;68.82
67722;SHT31;58309;45.292;11.820;2023-02-28T07:40:13;4.28;67.49
67722;SHT31;58309;45.292;11.820;2023-02-28T07:42:40;4.35;67.57
67722;SHT31;58309;45.292;11.820;2023-02-28T07:45:08;4.41;67.99
67722;SHT31;58309;45.292;11.820;2023-02-28T07:47:40;4.54;67.02
67722;SHT31;58309;45.292;11.820;2023-02-28T07:50:07;4.61;66.47
67722;SHT31;58309;45.292;11.820;2023-02-28T07:52:32;4.68;66.35
67722;SHT31;58309;45.292;11.820;2023-02-28T07:54:58;4.75;66.23
67722;SHT31;58309;45.292;11.820;2023-02-28T07:57:24;4.83;65.64
67722;SHT31;58309;45.292;11.820;2023-02-28T07:59:49;4.95;65.90
67722;SHT31;58309;45.292;11.820;2023-02-28T08:02:16;4.93;65.07
67722;SHT31;58309;45.292;11.820;2023-02-28T08:04:43;5.09;65.74
67722;SHT31;58309;45.292;11.820;2023-02-28T08:07:09;5.10;65.91
67722;SHT31;58309;45.292;11.820;2023-02-28T08:09:39;5.09;66.12
67722;SHT31;58309;45.292;11.820;2023-02-28T08:12:05;5.22;65.25
67722;SHT31;58309;45.292;11.820;2023-02-28T08:14:30;5.26;64.74
67722;SHT31;58309;45.292;11.820;2023-02-28T08:16:56;5.37;65.50
67722;SHT31;58309;45.292;11.820;2023-02-28T08:19:21;5.46;65.43
67722;SHT31;58309;45.292;11.820;2023-02-28T08:21:47;5.36;64.32
67722;SHT31;58309;45.292;11.820;2023-02-28T08:24:12;5.46;64.65
67722;SHT31;58309;45.292;11.820;2023-02-28T08:26:38;5.55;64.44
67722;SHT31;58309;45.292;11.820;2023-02-28T08:29:04;5.67;64.56
67722;SHT31;58309;45.292;11.820;2023-02-28T08:31:29;5.79;64.21
67722;SHT31;58309;45.292;11.820;2023-02-28T08:33:55;5.87;63.92
67722;SHT31;58309;45.292;11.820;2023-02-28T08:36:25;6.10;64.68
67722;SHT31;58309;45.292;11.820;2023-02-28T08:38:51;6.18;63.96
67722;SHT31;58309;45.292;11.820;2023-02-28T08:41:16;6.36;63.15
67722;SHT31;58309;45.292;11.820;2023-02-28T08:43:42;6.30;62.85
67722;SHT31;58309;45.292;11.820;2023-02-28T08:46:11;6.39;62.80
67722;SHT31;58309;45.292;11.820;2023-02-28T08:48:37;6.58;61.98
67722;SHT31;58309;45.292;11.820;2023-02-28T08:51:06;6.68;61.87
67722;SHT31;58309;45.292;11.820;2023-02-28T08:53:32;6.98;61.63
67722;SHT31;58309;45.292;11.820;2023-02-28T08:56:01;7.60;59.70
67722;SHT31;58309;45.292;11.820;2023-02-28T08:58:27;7.77;58.48
67722;SHT31;58309;45.292;11.820;2023-02-28T09:00:54;8.38;57.77
67722;SHT31;58309;45.292;11.820;2023-02-28T09:03:20;8.69;56.71
67722;SHT31;58309;45.292;11.820;2023-02-28T09:05:56;8.65;55.98
67722;SHT31;58309;45.292;11.820;2023-02-28T09:08:23;8.89;55.15
67722;SHT31;58309;45.292;11.820;2023-02-28T09:10:49;8.77;55.83
67722;SHT31;58309;45.292;11.820;2023-02-28T09:13:15;8.72;55.21
67722;SHT31;58309;45.292;11.820;2023-02-28T09:15:40;9.09;55.45
67722;SHT31;58309;45.292;11.820;2023-02-28T09:18:06;9.50;53.58
67722;SHT31;58309;45.292;11.820;2023-02-28T09:20:31;9.07;55.21
67722;SHT31;58309;45.292;11.820;2023-02-28T09:22:57;9.88;53.90
67722;SHT31;58309;45.292;11.820;2023-02-28T09:25:23;9.13;54.51
67722;SHT31;58309;45.292;11.820;2023-02-28T09:27:48;9.26;54.43
67722;SHT31;58309;45.292;11.820;2023-02-28T09:30:14;9.58;52.92
67722;SHT31;58309;45.292;11.820;2023-02-28T09:32:40;9.37;53.26
67722;SHT31;58309;45.292;11.820;2023-02-28T09:35:06;10.63;51.53
67722;SHT31;58309;45.292;11.820;2023-02-28T09:37:32;11.70;48.82
67722;SHT31;58309;45.292;11.820;2023-02-28T09:39:57;10.88;49.61
67722;SHT31;58309;45.292;11.820;2023-02-28T09:42:32;10.74;49.62
67722;SHT31;58309;45.292;11.820;2023-02-28T09:45:00;10.51;50.41
67722;SHT31;58309;45.292;11.820;2023-02-28T09:47:32;10.75;50.51
67722;SHT31;58309;45.292;11.820;2023-02-28T09:50:07;10.97;49.49
67722;SHT31;58309;45.292;11.820;2023-02-28T09:52:37;11.14;49.79
67722;SHT31;58309;45.292;11.820;2023-02-28T09:55:29;11.25;49.90
67722;SHT31;58309;45.292;11.820;2023-02-28T09:57:56;11.49;48.62
67722;SHT31;58309;45.292;11.820;2023-02-28T10:00:32;11.21;49.11
67722;SHT31;58309;45.292;11.820;2023-02-28T10:03:30;10.65;50.42
67722;SHT31;58309;45.292;11.820;2023-02-28T10:08:45;10.92;50.40
67722;SHT31;58309;45.292;11.820;2023-02-28T10:11:15;10.81;52.46
67722;SHT31;58309;45.292;11.820;2023-02-28T10:13:59;10.43;53.18
67722;SHT31;58309;45.292;11.820;2023-02-28T10:16:39;10.29;54.10
67722;SHT31;58309;45.292;11.820;2023-02-28T10:19:15;10.78;52.78
67722;SHT31;58309;45.292;11.820;2023-02-28T10:21:55;10.37;54.30
67722;SHT31;58309;45.292;11.820;2023-02-28T10:24:35;10.71;53.93
67722;SHT31;58309;45.292;11.820;2023-02-28T10:27:18;10.54;52.72
67722;SHT31;58309;45.292;11.820;2023-02-28T10:29:47;10.71;54.65
67722;SHT31;58309;45.292;11.820;2023-02-28T10:32:16;11.46;52.66
67722;SHT31;58309;45.292;11.820;2023-02-28T10:34:43;11.79;51.45
67722;SHT31;58309;45.292;11.820;2023-02-28T10:37:10;11.59;51.26
67722;SHT31;58309;45.292;11.820;2023-02-28T10:39:45;11.44;51.42
67722;SHT31;58309;45.292;11.820;2023-02-28T10:42:25;11.38;52.75
67722;SHT31;58309;45.292;11.820;2023-02-28T10:47:31;10.80;52.67
67722;SHT31;58309;45.292;11.820;2023-02-28T10:49:59;11.02;52.63
67722;SHT31;58309;45.292;11.820;2023-02-28T10:52:51;10.92;52.82
67722;SHT31;58309;45.292;11.820;2023-02-28T10:57:45;10.65;53.74
67722;SHT31;58309;45.292;11.820;2023-02-28T11:00:23;10.67;53.37
67722;SHT31;58309;45.292;11.820;2023-02-28T11:02:51;11.14;52.60
67722;SHT31;58309;45.292;11.820;2023-02-28T11:05:32;11.56;51.28
67722;SHT31;58309;45.292;11.820;2023-02-28T11:08:06;11.23;51.61
67722;SHT31;58309;45.292;11.820;2023-02-28T11:10:36;11.77;51.14
67722;SHT31;58309;45.292;11.820;2023-02-28T11:13:02;12.14;50.80
67722;SHT31;58309;45.292;11.820;2023-02-28T11:15:31;11.86;49.81
67722;SHT31;58309;45.292;11.820;2023-02-28T11:18:19;11.87;50.53
67722;SHT31;58309;45.292;11.820;2023-02-28T11:20:52;13.54;47.06
67722;SHT31;58309;45.292;11.820;2023-02-28T11:23:19;12.00;50.44
67722;SHT31;58309;45.292;11.820;2023-02-28T11:25:51;12.41;49.83
67722;SHT31;58309;45.292;11.820;2023-02-28T11:28:36;13.22;47.74
67722;SHT31;58309;45.292;11.820;2023-02-28T11:33:57;11.63;51.67
67722;SHT31;58309;45.292;11.820;2023-02-28T11:36:28;11.12;52.70
67722;SHT31;58309;45.292;11.820;2023-02-28T11:38:59;11.62;51.23
67722;SHT31;58309;45.292;11.820;2023-02-28T11:47:59;11.00;52.72
67722;SHT31;58309;45.292;11.820;2023-02-28T11:53:35;11.47;52.27
67722;SHT31;58309;45.292;11.820;2023-02-28T12:21:40;14.30;45.09
67722;SHT31;58309;45.292;11.820;2023-02-28T12:26:46;15.12;43.34
67722;SHT31;58309;45.292;11.820;2023-02-28T12:31:55;13.98;46.41
67722;SHT31;58309;45.292;11.820;2023-02-28T12:34:37;15.76;43.91
67722;SHT31;58309;45.292;11.820;2023-02-28T12:37:29;15.31;43.67
67722;SHT31;58309;45.292;11.820;2023-02-28T12:40:02;14.50;45.02
67722;SHT31;58309;45.292;11.820;2023-02-28T12:42:38;13.12;49.02
67722;SHT31;58309;45.292;11.820;2023-02-28T12:47:48;14.30;46.60
67722;SHT31;58309;45.292;11.820;2023-02-28T12:50:15;14.90;47.41
67722;SHT31;58309;45.292;11.820;2023-02-28T12:53:05;14.74;45.36
67722;SHT31;58309;45.292;11.820;2023-02-28T12:55:50;14.22;47.28
67722;SHT31;58309;45.292;11.820;2023-02-28T12:58:25;12.96;48.88
67722;SHT31;58309;45.292;11.820;2023-02-28T13:09:29;12.86;52.23
67722;SHT31;58309;45.292;11.820;2023-02-28T13:11:55;13.04;51.43
67722;SHT31;58309;45.292;11.820;2023-02-28T13:14:29;12.65;52.03
67722;SHT31;58309;45.292;11.820;2023-02-28T13:17:01;12.75;51.96
67722;SHT31;58309;45.292;11.820;2023-02-28T13:19:30;11.58;52.61
67722;SHT31;58309;45.292;11.820;2023-02-28T13:21:57;11.59;53.12
67722;SHT31;58309;45.292;11.820;2023-02-28T13:24:50;11.73;55.32
67722;SHT31;58309;45.292;11.820;2023-02-28T13:29:59;11.70;54.03
67722;SHT31;58309;45.292;11.820;2023-02-28T13:42:36;12.13;52.50
67722;SHT31;58309;45.292;11.820;2023-02-28T13:47:45;12.04;52.89
67722;SHT31;58309;45.292;11.820;2023-02-28T13:55:53;11.93;54.33
67722;SHT31;58309;45.292;11.820;2023-02-28T14:06:47;11.49;54.51
67722;SHT31;58309;45.292;11.820;2023-02-28T14:11:45;11.36;55.55
67722;SHT31;58309;45.292;11.820;2023-02-28T14:17:16;11.77;54.50
67722;SHT31;58309;45.292;11.820;2023-02-28T14:19:45;11.66;54.48
67722;SHT31;58309;45.292;11.820;2023-02-28T14:36:27;11.35;54.44
67722;SHT31;58309;45.292;11.820;2023-02-28T14:39:06;11.33;55.17
67722;SHT31;58309;45.292;11.820;2023-02-28T14:41:38;11.59;55.47
67722;SHT31;58309;45.292;11.820;2023-02-28T14:44:19;11.05;55.82
67722;SHT31;58309;45.292;11.820;2023-02-28T14:46:51;10.88;56.16
67722;SHT31;58309;45.292;11.820;2023-02-28T14:51:43;10.94;56.76
67722;SHT31;58309;45.292;11.820;2023-02-28T14:54:14;10.71;58.02
67722;SHT31;58309;45.292;11.820;2023-02-28T14:56:40;10.87;56.86
67722;SHT31;58309;45.292;11.820;2023-02-28T14:59:24;10.87;56.99
67722;SHT31;58309;45.292;11.820;2023-02-28T15:01:49;10.71;57.49
67722;SHT31;58309;45.292;11.820;2023-02-28T15:04:25;10.81;57.06
67722;SHT31;58309;45.292;11.820;2023-02-28T15:07:14;10.49;58.47
67722;SHT31;58309;45.292;11.820;2023-02-28T15:09:40;10.46;58.62
67722;SHT31;58309;45.292;11.820;2023-02-28T15:12:06;10.29;59.35
67722;SHT31;58309;45.292;11.820;2023-02-28T15:14:42;10.30;59.78
67722;SHT31;58309;45.292;11.820;2023-02-28T15:17:14;10.28;60.60
67722;SHT31;58309;45.292;11.820;2023-02-28T15:19:43;10.26;60.98
67722;SHT31;58309;45.292;11.820;2023-02-28T15:22:16;9.96;60.82
67722;SHT31;58309;45.292;11.820;2023-02-28T15:24:46;9.93;61.35
67722;SHT31;58309;45.292;11.820;2023-02-28T15:27:21;9.79;62.51
67722;SHT31;58309;45.292;11.820;2023-02-28T15:29:51;9.70;62.72
67722;SHT31;58309;45.292;11.820;2023-02-28T15:32:26;9.47;63.32
67722;SHT31;58309;45.292;11.820;2023-02-28T15:34:53;9.14;63.36
67722;SHT31;58309;45.292;11.820;2023-02-28T15:37:52;9.11;65.12
67722;SHT31;58309;45.292;11.820;2023-02-28T15:40:30;9.09;65.10
67722;SHT31;58309;45.292;11.820;2023-02-28T15:45:47;8.99;65.77
67722;SHT31;58309;45.292;11.820;2023-02-28T15:48:23;8.80;65.66
67722;SHT31;58309;45.292;11.820;2023-02-28T15:50:52;8.80;65.88
67722;SHT31;58309;45.292;11.820;2023-02-28T15:53:22;8.72;66.29
67722;SHT31;58309;45.292;11.820;2023-02-28T15:55:59;8.68;66.97
67722;SHT31;58309;45.292;11.820;2023-02-28T15:58:25;8.61;66.51
67722;SHT31;58309;45.292;11.820;2023-02-28T16:01:05;8.52;66.94
67722;SHT31;58309;45.292;11.820;2023-02-28T16:03:42;8.51;67.67
67722;SHT31;58309;45.292;11.820;2023-02-28T16:06:33;8.51;67.57
67722;SHT31;58309;45.292;11.820;2023-02-28T16:08:59;8.46;67.87
67722;SHT31;58309;45.292;11.820;2023-02-28T16:11:25;8.44;68.40
67722;SHT31;58309;45.292;11.820;2023-02-28T16:13:52;8.35;68.61
67722;SHT31;58309;45.292;11.820;2023-02-28T16:16:20;8.32;68.49
67722;SHT31;58309;45.292;11.820;2023-02-28T16:18:46;8.30;68.80
67722;SHT31;58309;45.292;11.820;2023-02-28T16:21:12;8.21;69.40
67722;SHT31;58309;45.292;11.820;2023-02-28T16:23:37;8.08;69.22
67722;SHT31;58309;45.292;11.820;2023-02-28T16:26:04;8.10;69.95
67722;SHT31;58309;45.292;11.820;2023-02-28T16:28:32;8.05;69.87
67722;SHT31;58309;45.292;11.820;2023-02-28T16:31:03;7.97;70.29
67722;SHT31;58309;45.292;11.820;2023-02-28T16:33:31;7.95;70.40
67722;SHT31;58309;45.292;11.820;2023-02-28T16:35:57;7.84;70.89
67722;SHT31;58309;45.292;11.820;2023-02-28T16:38:22;7.79;71.04
67722;SHT31;58309;45.292;11.820;2023-02-28T16:40:50;7.71;71.42
67722;SHT31;58309;45.292;11.820;2023-02-28T16:43:23;7.63;71.69
67722;SHT31;58309;45.292;11.820;2023-02-28T16:45:55;7.56;71.45
67722;SHT31;58309;45.292;11.820;2023-02-28T16:48:21;7.49;71.93
67722;SHT31;58309;45.292;11.820;2023-02-28T16:50:47;7.40;72.53
67722;SHT31;58309;45.292;11.820;2023-02-28T16:53:12;7.33;72.53
67722;SHT31;58309;45.292;11.820;2023-02-28T16:55:38;7.23;73.28
67722;SHT31;58309;45.292;11.820;2023-02-28T16:58:04;7.18;73.74
67722;SHT31;58309;45.292;11.820;2023-02-28T17:00:31;7.14;74.27
67722;SHT31;58309;45.292;11.820;2023-02-28T17:02:57;7.02;74.65
67722;SHT31;58309;45.292;11.820;2023-02-28T17:05:25;6.92;75.15
67722;SHT31;58309;45.292;11.820;2023-02-28T17:07:51;6.84;75.48
67722;SHT31;58309;45.292;11.820;2023-02-28T17:10:23;6.73;76.10
67722;SHT31;58309;45.292;11.820;2023-02-28T17:12:49;6.60;76.66
67722;SHT31;58309;45.292;11.820;2023-02-28T17:15:17;6.47;77.09
67722;SHT31;58309;45.292;11.820;2023-02-28T17:17:43;6.40;77.20
67722;SHT31;58309;45.292;11.820;2023-02-28T17:20:20;6.41;77.08
67722;SHT31;58309;45.292;11.820;2023-02-28T17:22:50;6.37;77.49
67722;SHT31;58309;45.292;11.820;2023-02-28T17:25:16;6.28;77.30
67722;SHT31;58309;45.292;11.820;2023-02-28T17:27:42;6.16;77.95
67722;SHT31;58309;45.292;11.820;2023-02-28T17:32:40;6.15;78.14
67722;SHT31;58309;45.292;11.820;2023-02-28T17:35:06;6.19;77.76
67722;SHT31;58309;45.292;11.820;2023-02-28T17:37:32;6.15;78.01
67722;SHT31;58309;45.292;11.820;2023-02-28T17:39:58;6.09;78.29
67722;SHT31;58309;45.292;11.820;2023-02-28T17:42:23;6.10;78.21
67722;SHT31;58309;45.292;11.820;2023-02-28T17:44:49;6.08;78.44
67722;SHT31;58309;45.292;11.820;2023-02-28T17:47:14;6.12;77.92
67722;SHT31;58309;45.292;11.820;2023-02-28T17:49:40;6.12;78.06
67722;SHT31;58309;45.292;11.820;2023-02-28T17:52:06;6.10;77.89
67722;SHT31;58309;45.292;11.820;2023-02-28T17:54:31;6.09;77.98
67722;SHT31;58309;45.292;11.820;2023-02-28T17:56:57;6.02;78.20
67722;SHT31;58309;45.292;11.820;2023-02-28T17:59:22;5.95;78.37
67722;SHT31;58309;45.292;11.820;2023-02-28T18:01:48;5.91;78.76
67722;SHT31;58309;45.292;11.820;2023-02-28T18:04:14;5.84;79.31
67722;SHT31;58309;45.292;11.820;2023-02-28T18:06:42;5.82;79.44
67722;SHT31;58309;45.292;11.820;2023-02-28T18:09:18;5.78;79.57
67722;SHT31;58309;45.292;11.820;2023-02-28T18:11:44;5.84;78.91
67722;SHT31;58309;45.292;11.820;2023-02-28T18:14:14;5.87;79.02
67722;SHT31;58309;45.292;11.820;2023-02-28T18:16:41;5.84;79.08
67722;SHT31;58309;45.292;11.820;2023-02-28T18:19:07;5.81;79.14
67722;SHT31;58309;45.292;11.820;2023-02-28T18:21:34;5.74;79.28
67722;SHT31;58309;45.292;11.820;2023-02-28T18:24:00;5.77;79.06
67722;SHT31;58309;45.292;11.820;2023-02-28T18:26:25;5.81;78.65